sensor_id;sensor_type;location;lat;lon;timestamp;pressure;altitude;pressure_sealevel;temperature;humidity
42111;BME280;27766;52.174;5.456;2023-03-04T00:02:07;102595.09;;;5.22;100.00
42111;BME280;27766;52.174;5.456;2023-03-04T00:04:34;102600.13;;;5.20;100.00
42111;BME280;27766;52.174;5.456;2023-03-04T00:07:02;102593.91;;;5.17;100.00
42111;BME280;27766;52.174;5.456;2023-03-04T00:09:29;102597.66;;;5.22;100.00
42111;BME280;27766;52.174;5.456;2023-03-04T00:11:56;102596.56;;;5.18;100.00
42111;BME280;27766;52.174;5.456;2023-03-04T00:14:24;102593.22;;;5.19;100.00
42111;BME280;27766;52.174;5.456;2023-03-04T00:16:51;102595.47;;;5.15;100.00
42111;BME280;27766;52.174;5.456;2023-03-04T00:19:18;102599.31;;;5.21;100.00
42111;BME280;27766;52.174;5.456;2023-03-04T00:21:46;102596.97;;;5.25;100.00
42111;BME280;27766;52.174;5.456;2023-03-04T00:24:13;102597.75;;;5.23;100.00
42111;BME280;27766;52.174;5.456;2023-03-04T00:26:40;102598.44;;;5.21;100.00
42111;BME280;27766;52.174;5.456;2023-03-04T00:29:07;102588.53;;;5.14;100.00
42111;BME280;27766;52.174;5.456;2023-03-04T00:31:34;102601.00;;;5.21;100.00
42111;BME280;27766;52.174;5.456;2023-03-04T00:34:01;102601.38;;;5.14;100.00
42111;BME280;27766;52.174;5.456;2023-03-04T00:36:28;102595.91;;;5.09;100.00
42111;BME280;27766;52.174;5.456;2023-03-04T00:38:55;102599.16;;;5.06;100.00
42111;BME280;27766;52.174;5.456;2023-03-04T00:41:25;102594.59;;;5.02;100.00
42111;BME280;27766;52.174;5.456;2023-03-04T00:43:53;102591.47;;;5.06;100.00
42111;BME280;27766;52.174;5.456;2023-03-04T00:46:20;102594.44;;;5.13;100.00
42111;BME280;27766;52.174;5.456;2023-03-04T00:48:47;102585.56;;;5.07;100.00
42111;BME280;27766;52.174;5.456;2023-03-04T00:51:14;102591.66;;;5.10;100.00
42111;BME280;27766;52.174;5.456;2023-03-04T00:53:41;102581.41;;;5.10;100.00
42111;BME280;27766;52.174;5.456;2023-03-04T00:56:09;102586.91;;;5.02;100.00
42111;BME280;27766;52.174;5.456;2023-03-04T00:58:36;102587.34;;;5.09;100.00
42111;BME280;27766;52.174;5.456;2023-03-04T01:01:03;102595.59;;;5.04;100.00
42111;BME280;27766;52.174;5.456;2023-03-04T01:03:30;102599.50;;;5.11;100.00
42111;BME280;27766;52.174;5.456;2023-03-04T01:05:58;102595.38;;;5.13;100.00
42111;BME280;27766;52.174;5.456;2023-03-04T01:08:25;102605.50;;;5.12;100.00
42111;BME280;27766;52.174;5.456;2023-03-04T01:10:53;102607.06;;;5.10;100.00
42111;BME280;27766;52.174;5.456;2023-03-04T01:13:20;102601.06;;;5.09;100.00
42111;BME280;27766;52.174;5.456;2023-03-04T01:15:47;102594.22;;;5.10;100.00
42111;BME280;27766;52.174;5.456;2023-03-04T01:18:14;102595.66;;;5.18;100.00
42111;BME280;27766;52.174;5.456;2023-03-04T01:20:42;102586.25;;;5.05;100.00
42111;BME280;27766;52.174;5.456;2023-03-04T01:23:09;102599.59;;;5.13;100.00
42111;BME280;27766;52.174;5.456;2023-03-04T01:25:36;102573.69;;;5.10;100.00
42111;BME280;27766;52.174;5.456;2023-03-04T01:28:03;102591.19;;;5.15;100.00
42111;BME280;27766;52.174;5.456;2023-03-04T01:30:30;102581.09;;;5.05;100.00
42111;BME280;27766;52.174;5.456;2023-03-04T01:32:57;102584.09;;;5.11;100.00
42111;BME280;27766;52.174;5.456;2023-03-04T01:35:25;102581.06;;;5.17;100.00
42111;BME280;27766;52.174;5.456;2023-03-04T01:37:52;102579.16;;;5.14;100.00
42111;BME280;27766;52.174;5.456;2023-03-04T01:40:19;102579.84;;;5.12;100.00
42111;BME280;27766;52.174;5.456;2023-03-04T01:42:46;102576.94;;;5.07;100.00
42111;BME280;27766;52.174;5.456;2023-03-04T01:45:15;102566.38;;;5.02;100.00
42111;BME280;27766;52.174;5.456;2023-03-04T01:47:47;102563.00;;;5.03;100.00
42111;BME280;27766;52.174;5.456;2023-03-04T01:50:19;102567.78;;;5.11;100.00
42111;BME280;27766;52.174;5.456;2023-03-04T01:52:47;102554.03;;;4.97;100.00
42111;BME280;27766;52.174;5.456;2023-03-04T01:55:16;102557.50;;;5.11;100.00
42111;BME280;27766;52.174;5.456;2023-03-04T01:57:45;102549.63;;;5.07;100.00
42111;BME280;27766;52.174;5.456;2023-03-04T02:00:31;102559.88;;;5.07;100.00
42111;BME280;27766;52.174;5.456;2023-03-04T02:03:03;102553.53;;;5.02;100.00
42111;BME280;27766;52.174;5.456;2023-03-04T02:05:36;102544.84;;;5.00;100.00
42111;BME280;27766;52.174;5.456;2023-03-04T02:08:04;102547.75;;;5.05;100.00
42111;BME280;27766;52.174;5.456;2023-03-04T02:10:31;102542.09;;;5.11;100.00
42111;BME280;27766;52.174;5.456;2023-03-04T02:13:00;102542.09;;;5.11;100.00
42111;BME280;27766;52.174;5.456;2023-03-04T02:15:29;102533.31;;;5.07;100.00
42111;BME280;27766;52.174;5.456;2023-03-04T02:17:56;102531.75;;;5.09;100.00
42111;BME280;27766;52.174;5.456;2023-03-04T02:20:34;102538.75;;;5.12;100.00
42111;BME280;27766;52.174;5.456;2023-03-04T02:23:11;102538.56;;;5.09;100.00
42111;BME280;27766;52.174;5.456;2023-03-04T02:25:47;102520.75;;;4.98;100.00
42111;BME280;27766;52.174;5.456;2023-03-04T02:28:15;102519.19;;;5.00;100.00
42111;BME280;27766;52.174;5.456;2023-03-04T02:30:42;102523.09;;;4.95;100.00
42111;BME280;27766;52.174;5.456;2023-03-04T02:33:14;102528.69;;;5.01;100.00
42111;BME280;27766;52.174;5.456;2023-03-04T02:35:42;102529.28;;;5.11;100.00
42111;BME280;27766;52.174;5.456;2023-03-04T02:38:10;102530.59;;;5.17;100.00
42111;BME280;27766;52.174;5.456;2023-03-04T02:40:39;102530.38;;;5.14;100.00
42111;BME280;27766;52.174;5.456;2023-03-04T02:43:10;102533.06;;;5.16;100.00
42111;BME280;27766;52.174;5.456;2023-03-04T02:45:39;102518.44;;;5.15;100.00
42111;BME280;27766;52.174;5.456;2023-03-04T02:48:07;102524.50;;;5.03;100.00
42111;BME280;27766;52.174;5.456;2023-03-04T02:50:48;102525.28;;;5.02;100.00
42111;BME280;27766;52.174;5.456;2023-03-04T02:53:16;102522.53;;;4.99;100.00
42111;BME280;27766;52.174;5.456;2023-03-04T02:55:43;102506.59;;;4.91;100.00
42111;BME280;27766;52.174;5.456;2023-03-04T02:58:12;102506.94;;;4.96;100.00
42111;BME280;27766;52.174;5.456;2023-03-04T03:00:40;102514.06;;;5.00;100.00
42111;BME280;27766;52.174;5.456;2023-03-04T03:03:07;102497.03;;;4.89;100.00
42111;BME280;27766;52.174;5.456;2023-03-04T03:05:35;102505.97;;;4.94;100.00
42111;BME280;27766;52.174;5.456;2023-03-04T03:08:03;102504.50;;;4.98;100.00
42111;BME280;27766;52.174;5.456;2023-03-04T03:10:30;102495.47;;;4.91;100.00
42111;BME280;27766;52.174;5.456;2023-03-04T03:12:58;102502.69;;;4.97;100.00
42111;BME280;27766;52.174;5.456;2023-03-04T03:15:25;102485.44;;;4.94;100.00
42111;BME280;27766;52.174;5.456;2023-03-04T03:17:53;102485.13;;;4.89;100.00
42111;BME280;27766;52.174;5.456;2023-03-04T03:20:20;102488.78;;;4.93;100.00
42111;BME280;27766;52.174;5.456;2023-03-04T03:22:47;102483.19;;;4.87;100.00
42111;BME280;27766;52.174;5.456;2023-03-04T03:25:16;102484.22;;;4.89;100.00
42111;BME280;27766;52.174;5.456;2023-03-04T03:27:43;102487.88;;;4.93;100.00
42111;BME280;27766;52.174;5.456;2023-03-04T03:30:12;102483.41;;;4.90;100.00
42111;BME280;27766;52.174;5.456;2023-03-04T03:32:40;102479.38;;;4.94;100.00
42111;BME280;27766;52.174;5.456;2023-03-04T03:35:07;102472.94;;;4.87;100.00
42111;BME280;27766;52.174;5.456;2023-03-04T03:37:34;102480.34;;;4.82;100.00
42111;BME280;27766;52.174;5.456;2023-03-04T03:40:02;102477.66;;;4.81;100.00
42111;BME280;27766;52.174;5.456;2023-03-04T03:42:30;102486.00;;;4.90;100.00
42111;BME280;27766;52.174;5.456;2023-03-04T03:44:57;102470.59;;;4.90;100.00
42111;BME280;27766;52.174;5.456;2023-03-04T03:47:24;102478.19;;;4.88;100.00
42111;BME280;27766;52.174;5.456;2023-03-04T03:49:51;102480.75;;;4.88;100.00
42111;BME280;27766;52.174;5.456;2023-03-04T03:52:19;102485.75;;;4.87;100.00
42111;BME280;27766;52.174;5.456;2023-03-04T03:54:46;102473.16;;;4.90;100.00
42111;BME280;27766;52.174;5.456;2023-03-04T03:57:13;102484.22;;;4.89;100.00
42111;BME280;27766;52.174;5.456;2023-03-04T03:59:40;102481.72;;;4.90;100.00
42111;BME280;27766;52.174;5.456;2023-03-04T04:02:07;102480.63;;;4.87;100.00
42111;BME280;27766;52.174;5.456;2023-03-04T04:04:35;102465.34;;;4.75;100.00
42111;BME280;27766;52.174;5.456;2023-03-04T04:07:02;102487.38;;;4.85;100.00
42111;BME280;27766;52.174;5.456;2023-03-04T04:09:29;102474.41;;;4.83;100.00
42111;BME280;27766;52.174;5.456;2023-03-04T04:11:56;102482.78;;;4.81;100.00
42111;BME280;27766;52.174;5.456;2023-03-04T04:14:24;102486.03;;;4.78;100.00
42111;BME280;27766;52.174;5.456;2023-03-04T04:16:51;102485.47;;;4.82;100.00
42111;BME280;27766;52.174;5.456;2023-03-04T04:19:19;102488.34;;;4.87;100.00
42111;BME280;27766;52.174;5.456;2023-03-04T04:21:47;102482.38;;;4.74;100.00
42111;BME280;27766;52.174;5.456;2023-03-04T04:24:15;102486.81;;;4.77;100.00
42111;BME280;27766;52.174;5.456;2023-03-04T04:26:42;102479.44;;;4.82;100.00
42111;BME280;27766;52.174;5.456;2023-03-04T04:29:12;102487.41;;;4.73;100.00
42111;BME280;27766;52.174;5.456;2023-03-04T04:31:39;102489.06;;;4.72;100.00
42111;BME280;27766;52.174;5.456;2023-03-04T04:34:07;102481.06;;;4.68;100.00
42111;BME280;27766;52.174;5.456;2023-03-04T04:36:34;102484.84;;;4.73;100.00
42111;BME280;27766;52.174;5.456;2023-03-04T04:39:01;102482.28;;;4.73;100.00
42111;BME280;27766;52.174;5.456;2023-03-04T04:41:37;102491.88;;;4.75;100.00
42111;BME280;27766;52.174;5.456;2023-03-04T04:44:04;102496.91;;;4.74;100.00
42111;BME280;27766;52.174;5.456;2023-03-04T04:46:32;102481.19;;;4.69;100.00
42111;BME280;27766;52.174;5.456;2023-03-04T04:48:59;102489.84;;;4.71;100.00
42111;BME280;27766;52.174;5.456;2023-03-04T04:51:26;102492.97;;;4.79;100.00
42111;BME280;27766;52.174;5.456;2023-03-04T04:53:54;102490.63;;;4.82;100.00
42111;BME280;27766;52.174;5.456;2023-03-04T04:56:23;102485.84;;;4.75;100.00
42111;BME280;27766;52.174;5.456;2023-03-04T04:58:53;102483.88;;;4.84;100.00
42111;BME280;27766;52.174;5.456;2023-03-04T05:01:22;102484.94;;;4.74;100.00
42111;BME280;27766;52.174;5.456;2023-03-04T05:03:49;102483.94;;;4.72;100.00
42111;BME280;27766;52.174;5.456;2023-03-04T05:06:19;102484.72;;;4.71;100.00
42111;BME280;27766;52.174;5.456;2023-03-04T05:08:47;102489.19;;;4.74;100.00
42111;BME280;27766;52.174;5.456;2023-03-04T05:11:14;102486.50;;;4.72;100.00
42111;BME280;27766;52.174;5.456;2023-03-04T05:13:42;102489.06;;;4.72;100.00
42111;BME280;27766;52.174;5.456;2023-03-04T05:16:09;102486.50;;;4.72;100.00
42111;BME280;27766;52.174;5.456;2023-03-04T05:18:36;102477.03;;;4.71;100.00
42111;BME280;27766;52.174;5.456;2023-03-04T05:21:03;102479.72;;;4.73;100.00
42111;BME280;27766;52.174;5.456;2023-03-04T05:23:37;102483.94;;;4.72;100.00
42111;BME280;27766;52.174;5.456;2023-03-04T05:26:06;102472.59;;;4.69;100.00
42111;BME280;27766;52.174;5.456;2023-03-04T05:28:34;102483.69;;;4.81;100.00
42111;BME280;27766;52.174;5.456;2023-03-04T05:31:01;102472.03;;;4.73;100.00
42111;BME280;27766;52.174;5.456;2023-03-04T05:33:29;102481.38;;;4.72;100.00
42111;BME280;27766;52.174;5.456;2023-03-04T05:35:57;102475.84;;;4.66;100.00
42111;BME280;27766;52.174;5.456;2023-03-04T05:38:24;102483.06;;;4.72;100.00
42111;BME280;27766;52.174;5.456;2023-03-04T05:41:00;102481.19;;;4.69;100.00
42111;BME280;27766;52.174;5.456;2023-03-04T05:43:28;102482.06;;;4.70;100.00
42111;BME280;27766;52.174;5.456;2023-03-04T05:45:55;102486.31;;;4.69;100.00
42111;BME280;27766;52.174;5.456;2023-03-04T05:48:23;102477.41;;;4.64;100.00
42111;BME280;27766;52.174;5.456;2023-03-04T05:50:58;102479.97;;;4.64;100.00
42111;BME280;27766;52.174;5.456;2023-03-04T05:53:26;102477.63;;;4.67;100.00
42111;BME280;27766;52.174;5.456;2023-03-04T05:55:54;102481.50;;;4.74;100.00
42111;BME280;27766;52.174;5.456;2023-03-04T05:58:22;102475.84;;;4.66;100.00
42111;BME280;27766;52.174;5.456;2023-03-04T06:00:49;102476.38;;;4.74;100.00
42111;BME280;27766;52.174;5.456;2023-03-04T06:03:18;102479.59;;;4.71;100.00
42111;BME280;27766;52.174;5.456;2023-03-04T06:05:45;102486.00;;;4.65;100.00
42111;BME280;27766;52.174;5.456;2023-03-04T06:08:13;102479.41;;;4.68;100.00
42111;BME280;27766;52.174;5.456;2023-03-04T06:10:40;102473.97;;;4.64;100.00
42111;BME280;27766;52.174;5.456;2023-03-04T06:13:08;102475.66;;;4.63;100.00
42111;BME280;27766;52.174;5.456;2023-03-04T06:15:37;102476.06;;;4.69;100.00
42111;BME280;27766;52.174;5.456;2023-03-04T06:18:06;102476.06;;;4.69;100.00
42111;BME280;27766;52.174;5.456;2023-03-04T06:20:33;102479.19;;;4.65;100.00
42111;BME280;27766;52.174;5.456;2023-03-04T06:23:00;102473.44;;;4.56;100.00
42111;BME280;27766;52.174;5.456;2023-03-04T06:25:28;102483.22;;;4.62;100.00
42111;BME280;27766;52.174;5.456;2023-03-04T06:27:55;102478.56;;;4.56;100.00
42111;BME280;27766;52.174;5.456;2023-03-04T06:30:24;102473.63;;;4.59;100.00
42111;BME280;27766;52.174;5.456;2023-03-04T06:32:53;102485.25;;;4.54;100.00
42111;BME280;27766;52.174;5.456;2023-03-04T06:35:20;102474.41;;;4.58;100.00
42111;BME280;27766;52.174;5.456;2023-03-04T06:37:48;102483.22;;;4.62;100.00
42111;BME280;27766;52.174;5.456;2023-03-04T06:40:15;102484.59;;;4.56;100.00
42111;BME280;27766;52.174;5.456;2023-03-04T06:42:43;102476.78;;;4.55;100.00
42111;BME280;27766;52.174;5.456;2023-03-04T06:45:10;102487.88;;;4.67;100.00
42111;BME280;27766;52.174;5.456;2023-03-04T06:47:38;102484.63;;;4.70;100.00
42111;BME280;27766;52.174;5.456;2023-03-04T06:50:06;102486.69;;;4.62;100.00
42111;BME280;27766;52.174;5.456;2023-03-04T06:52:33;102486.56;;;4.60;100.00
42111;BME280;27766;52.174;5.456;2023-03-04T06:55:00;102489.03;;;4.59;100.00
42111;BME280;27766;52.174;5.456;2023-03-04T06:57:27;102498.59;;;4.62;100.00
42111;BME280;27766;52.174;5.456;2023-03-04T06:59:55;102486.38;;;4.57;100.00
42111;BME280;27766;52.174;5.456;2023-03-04T07:02:23;102496.69;;;4.71;100.00
42111;BME280;27766;52.174;5.456;2023-03-04T07:04:50;102495.66;;;4.69;100.00
42111;BME280;27766;52.174;5.456;2023-03-04T07:07:17;102495.34;;;4.64;100.00
42111;BME280;27766;52.174;5.456;2023-03-04T07:09:44;102505.06;;;4.68;100.00
42111;BME280;27766;52.174;5.456;2023-03-04T07:12:11;102487.19;;;4.70;100.00
42111;BME280;27766;52.174;5.456;2023-03-04T07:14:38;102495.13;;;4.73;100.00
42111;BME280;27766;52.174;5.456;2023-03-04T07:17:06;102500.56;;;4.78;100.00
42111;BME280;27766;52.174;5.456;2023-03-04T07:19:33;102497.03;;;4.64;100.00
42111;BME280;27766;52.174;5.456;2023-03-04T07:22:00;102498.72;;;4.63;100.00
42111;BME280;27766;52.174;5.456;2023-03-04T07:24:27;102496.25;;;4.65;100.00
42111;BME280;27766;52.174;5.456;2023-03-04T07:26:54;102499.38;;;4.60;100.00
42111;BME280;27766;52.174;5.456;2023-03-04T07:29:21;102503.28;;;4.67;100.00
42111;BME280;27766;52.174;5.456;2023-03-04T07:31:48;102500.13;;;4.71;100.00
42111;BME280;27766;52.174;5.456;2023-03-04T07:34:19;102502.81;;;4.73;100.00
42111;BME280;27766;52.174;5.456;2023-03-04T07:36:46;102507.34;;;4.77;100.00
42111;BME280;27766;52.174;5.456;2023-03-04T07:39:13;102508.44;;;4.81;100.00
42111;BME280;27766;52.174;5.456;2023-03-04T07:41:40;102509.44;;;4.83;100.00
42111;BME280;27766;52.174;5.456;2023-03-04T07:44:11;102508.75;;;4.85;100.00
42111;BME280;27766;52.174;5.456;2023-03-04T07:46:39;102496.41;;;4.80;100.00
42111;BME280;27766;52.174;5.456;2023-03-04T07:49:07;102499.28;;;4.84;100.00
42111;BME280;27766;52.174;5.456;2023-03-04T07:51:34;102512.53;;;4.90;100.00
42111;BME280;27766;52.174;5.456;2023-03-04T07:54:01;102506.75;;;4.93;100.00
42111;BME280;27766;52.174;5.456;2023-03-04T07:56:31;102506.94;;;4.96;100.00
42111;BME280;27766;52.174;5.456;2023-03-04T07:58:59;102512.28;;;4.99;100.00
42111;BME280;27766;52.174;5.456;2023-03-04T08:01:32;102506.94;;;4.96;100.00
42111;BME280;27766;52.174;5.456;2023-03-04T08:04:00;102512.66;;;4.92;100.00
42111;BME280;27766;52.174;5.456;2023-03-04T08:06:28;102511.88;;;4.93;100.00
42111;BME280;27766;52.174;5.456;2023-03-04T08:09:00;102520.28;;;5.04;100.00
42111;BME280;27766;52.174;5.456;2023-03-04T08:11:28;102527.72;;;5.13;100.00
42111;BME280;27766;52.174;5.456;2023-03-04T08:13:57;102514.47;;;5.06;100.00
42111;BME280;27766;52.174;5.456;2023-03-04T08:16:25;102526.78;;;5.24;100.00
42111;BME280;27766;52.174;5.456;2023-03-04T08:18:56;102525.28;;;5.28;100.00
42111;BME280;27766;52.174;5.456;2023-03-04T08:21:26;102523.22;;;5.35;100.00
42111;BME280;27766;52.174;5.456;2023-03-04T08:23:57;102516.81;;;5.42;100.00
42111;BME280;27766;52.174;5.456;2023-03-04T08:26:28;102521.50;;;5.61;100.00
42111;BME280;27766;52.174;5.456;2023-03-04T08:28:56;102525.53;;;5.58;100.00
42111;BME280;27766;52.174;5.456;2023-03-04T08:31:24;102513.56;;;5.45;100.00
42111;BME280;27766;52.174;5.456;2023-03-04T08:33:51;102517.78;;;5.44;100.00
42111;BME280;27766;52.174;5.456;2023-03-04T08:36:19;102531.16;;;5.52;100.00
42111;BME280;27766;52.174;5.456;2023-03-04T08:38:47;102526.72;;;5.49;100.00
42111;BME280;27766;52.174;5.456;2023-03-04T08:41:14;102509.00;;;5.41;100.00
42111;BME280;27766;52.174;5.456;2023-03-04T08:43:42;102522.34;;;5.48;100.00
42111;BME280;27766;52.174;5.456;2023-03-04T08:46:09;102526.38;;;5.31;100.00
42111;BME280;27766;52.174;5.456;2023-03-04T08:48:37;102514.50;;;5.20;100.00
42111;BME280;27766;52.174;5.456;2023-03-04T08:51:09;102526.97;;;5.27;100.00
42111;BME280;27766;52.174;5.456;2023-03-04T08:53:37;102529.53;;;5.27;100.00
42111;BME280;27766;52.174;5.456;2023-03-04T08:56:05;102531.31;;;5.28;100.00
42111;BME280;27766;52.174;5.456;2023-03-04T08:58:33;102527.34;;;5.33;100.00
42111;BME280;27766;52.174;5.456;2023-03-04T09:01:00;102520.66;;;5.49;100.00
42111;BME280;27766;52.174;5.456;2023-03-04T09:03:28;102509.31;;;5.45;100.00
42111;BME280;27766;52.174;5.456;2023-03-04T09:05:55;102520.09;;;5.53;100.00
42111;BME280;27766;52.174;5.456;2023-03-04T09:08:23;102525.63;;;5.46;100.00
42111;BME280;27766;52.174;5.456;2023-03-04T09:10:53;102515.34;;;5.46;100.00
42111;BME280;27766;52.174;5.456;2023-03-04T09:13:22;102522.44;;;5.50;100.00
42111;BME280;27766;52.174;5.456;2023-03-04T09:15:53;102510.50;;;5.50;100.00
42111;BME280;27766;52.174;5.456;2023-03-04T09:18:22;102515.75;;;5.65;100.00
42111;BME280;27766;52.174;5.456;2023-03-04T09:20:49;102509.03;;;5.81;100.00
42111;BME280;27766;52.174;5.456;2023-03-04T09:23:17;102514.28;;;5.96;100.00
42111;BME280;27766;52.174;5.456;2023-03-04T09:25:45;102512.88;;;6.14;100.00
42111;BME280;27766;52.174;5.456;2023-03-04T09:28:14;102527.94;;;6.08;100.00
42111;BME280;27766;52.174;5.456;2023-03-04T09:30:43;102507.56;;;6.11;100.00
42111;BME280;27766;52.174;5.456;2023-03-04T09:33:11;102519.03;;;6.16;100.00
42111;BME280;27766;52.174;5.456;2023-03-04T09:35:38;102522.59;;;6.18;100.00
42111;BME280;27766;52.174;5.456;2023-03-04T09:38:06;102520.59;;;6.14;100.00
42111;BME280;27766;52.174;5.456;2023-03-04T09:40:40;102510.91;;;6.24;100.00
42111;BME280;27766;52.174;5.456;2023-03-04T09:45:46;102513.19;;;6.19;100.00
42111;BME280;27766;52.174;5.456;2023-03-04T09:48:17;102517.31;;;6.17;100.00
42111;BME280;27766;52.174;5.456;2023-03-04T09:51:01;102503.69;;;6.18;100.00
42111;BME280;27766;52.174;5.456;2023-03-04T09:53:52;102503.47;;;6.28;100.00
42111;BME280;27766;52.174;5.456;2023-03-04T09:56:24;102506.25;;;6.31;100.00
42111;BME280;27766;52.174;5.456;2023-03-04T10:04:00;102498.00;;;6.65;100.00
42111;BME280;27766;52.174;5.456;2023-03-04T10:06:30;102498.16;;;6.82;100.00
42111;BME280;27766;52.174;5.456;2023-03-04T10:09:10;102503.66;;;6.88;100.00
42111;BME280;27766;52.174;5.456;2023-03-04T10:11:48;102501.00;;;6.58;100.00
42111;BME280;27766;52.174;5.456;2023-03-04T10:17:05;102487.84;;;6.25;100.00
42111;BME280;27766;52.174;5.456;2023-03-04T10:19:54;102492.56;;;6.46;100.00
42111;BME280;27766;52.174;5.456;2023-03-04T10:22:34;102485.25;;;6.39;100.00
42111;BME280;27766;52.174;5.456;2023-03-04T10:25:26;102488.06;;;6.57;100.00
42111;BME280;27766;52.174;5.456;2023-03-04T10:27:57;102485.22;;;6.67;100.00
42111;BME280;27766;52.174;5.456;2023-03-04T10:30:37;102477.63;;;6.69;100.00
42111;BME280;27766;52.174;5.456;2023-03-04T10:33:21;102483.91;;;6.74;100.00
42111;BME280;27766;52.174;5.456;2023-03-04T10:36:03;102476.00;;;6.71;100.00
42111;BME280;27766;52.174;5.456;2023-03-04T10:38:41;102480.19;;;6.69;100.00
42111;BME280;27766;52.174;5.456;2023-03-04T10:41:22;102487.13;;;6.70;100.00
42111;BME280;27766;52.174;5.456;2023-03-04T10:44:02;102479.00;;;6.63;100.00
42111;BME280;27766;52.174;5.456;2023-03-04T10:46:30;102485.16;;;6.65;100.00
42111;BME280;27766;52.174;5.456;2023-03-04T10:48:58;102477.06;;;6.74;100.00
42111;BME280;27766;52.174;5.456;2023-03-04T10:51:28;102473.63;;;6.74;100.00
42111;BME280;27766;52.174;5.456;2023-03-04T10:54:09;102478.53;;;6.84;100.00
42111;BME280;27766;52.174;5.456;2023-03-04T10:56:55;102477.91;;;6.88;100.00
42111;BME280;27766;52.174;5.456;2023-03-04T11:01:59;102477.94;;;7.03;100.00
42111;BME280;27766;52.174;5.456;2023-03-04T11:04:32;102482.00;;;7.15;100.00
42111;BME280;27766;52.174;5.456;2023-03-04T11:07:00;102479.97;;;7.09;100.00
42111;BME280;27766;52.174;5.456;2023-03-04T11:09:29;102477.81;;;7.02;100.00
42111;BME280;27766;52.174;5.456;2023-03-04T11:11:59;102481.13;;;6.84;100.00
42111;BME280;27766;52.174;5.456;2023-03-04T11:14:30;102466.63;;;6.71;100.00
42111;BME280;27766;52.174;5.456;2023-03-04T11:17:08;102473.75;;;6.47;100.00
42111;BME280;27766;52.174;5.456;2023-03-04T11:19:46;102472.69;;;6.43;100.00
42111;BME280;27766;52.174;5.456;2023-03-04T11:22:16;102473.63;;;6.17;100.00
42111;BME280;27766;52.174;5.456;2023-03-04T11:24:55;102477.00;;;6.16;100.00
42111;BME280;27766;52.174;5.456;2023-03-04T11:27:41;102482.66;;;6.10;100.00
42111;BME280;27766;52.174;5.456;2023-03-04T11:31:03;102465.81;;;6.15;100.00
42111;BME280;27766;52.174;5.456;2023-03-04T11:36:20;102461.47;;;6.43;100.00
42111;BME280;27766;52.174;5.456;2023-03-04T11:38:51;102462.69;;;6.63;100.00
42111;BME280;27766;52.174;5.456;2023-03-04T11:41:37;102446.31;;;6.76;100.00
42111;BME280;27766;52.174;5.456;2023-03-04T11:44:07;102454.19;;;6.79;100.00
42111;BME280;27766;52.174;5.456;2023-03-04T11:55:40;102457.03;;;7.43;100.00
42111;BME280;27766;52.174;5.456;2023-03-04T12:01:05;102446.53;;;7.55;100.00
42111;BME280;27766;52.174;5.456;2023-03-04T12:09:19;102441.41;;;7.87;100.00
42111;BME280;27766;52.174;5.456;2023-03-04T12:20:13;102454.13;;;7.52;100.00
42111;BME280;27766;52.174;5.456;2023-03-04T12:22:46;102443.97;;;7.55;100.00
42111;BME280;27766;52.174;5.456;2023-03-04T12:25:58;102439.38;;;7.50;100.00
42111;BME280;27766;52.174;5.456;2023-03-04T12:28:34;102440.78;;;7.44;100.00
42111;BME280;27766;52.174;5.456;2023-03-04T12:34:26;102439.63;;;7.54;100.00
42111;BME280;27766;52.174;5.456;2023-03-04T12:45:19;102420.78;;;7.87;100.00
42111;BME280;27766;52.174;5.456;2023-03-04T12:53:16;102423.16;;;8.15;100.00
42111;BME280;27766;52.174;5.456;2023-03-04T12:55:48;102420.91;;;8.21;100.00
42111;BME280;27766;52.174;5.456;2023-03-04T12:58:21;102423.47;;;8.05;100.00
42111;BME280;27766;52.174;5.456;2023-03-04T13:06:19;102423.09;;;7.04;100.00
42111;BME280;27766;52.174;5.456;2023-03-04T13:09:14;102426.78;;;6.94;100.00
42111;BME280;27766;52.174;5.456;2023-03-04T13:17:00;102420.47;;;6.59;100.00
42111;BME280;27766;52.174;5.456;2023-03-04T13:28:11;102406.31;;;6.38;100.00
42111;BME280;27766;52.174;5.456;2023-03-04T13:36:05;102399.59;;;6.40;100.00
42111;BME280;27766;52.174;5.456;2023-03-04T13:38:36;102402.59;;;6.47;100.00
42111;BME280;27766;52.174;5.456;2023-03-04T13:41:45;102401.56;;;6.59;100.00
42111;BME280;27766;52.174;5.456;2023-03-04T13:47:12;102394.41;;;6.83;100.00
42111;BME280;27766;52.174;5.456;2023-03-04T13:49:41;102392.09;;;6.88;100.00
42111;BME280;27766;52.174;5.456;2023-03-04T13:52:37;102400.34;;;6.82;100.00
42111;BME280;27766;52.174;5.456;2023-03-04T13:55:37;102395.09;;;6.80;100.00
42111;BME280;27766;52.174;5.456;2023-03-04T13:58:25;102394.31;;;6.81;100.00
42111;BME280;27766;52.174;5.456;2023-03-04T14:00:55;102393.59;;;6.84;100.00
42111;BME280;27766;52.174;5.456;2023-03-04T14:03:25;102391.09;;;6.86;100.00
42111;BME280;27766;52.174;5.456;2023-03-04T14:08:47;102383.38;;;6.86;100.00
42111;BME280;27766;52.174;5.456;2023-03-04T14:11:26;102376.63;;;6.73;100.00
42111;BME280;27766;52.174;5.456;2023-03-04T14:13:56;102376.56;;;6.71;100.00
42111;BME280;27766;52.174;5.456;2023-03-04T14:16:37;102391.63;;;6.65;100.00
42111;BME280;27766;52.174;5.456;2023-03-04T14:19:12;102385.69;;;6.66;100.00
42111;BME280;27766;52.174;5.456;2023-03-04T14:21:44;102368.56;;;6.67;100.00
42111;BME280;27766;52.174;5.456;2023-03-04T14:24:19;102373.50;;;6.63;100.00
42111;BME280;27766;52.174;5.456;2023-03-04T14:26:46;102371.38;;;6.56;100.00
42111;BME280;27766;52.174;5.456;2023-03-04T14:31:46;102374.16;;;6.59;100.00
42111;BME280;27766;52.174;5.456;2023-03-04T14:34:21;102351.59;;;6.55;100.00
42111;BME280;27766;52.174;5.456;2023-03-04T14:36:49;102367.22;;;6.58;100.00
42111;BME280;27766;52.174;5.456;2023-03-04T14:39:17;102364.81;;;6.76;100.00